createdAt,value
2018-05-07T00:01:55.975Z,13.87
2018-05-07T00:04:59.303Z,15.40
2018-05-07T00:08:02.659Z,14.07
2018-05-07T00:11:05.980Z,15.23
2018-05-07T00:14:09.394Z,14.83
2018-05-07T00:17:12.778Z,16.37
2018-05-07T00:20:16.120Z,16.87
2018-05-07T00:23:20.242Z,14.97
2018-05-07T00:26:24.320Z,17.00
2018-05-07T00:29:27.640Z,14.30
2018-05-07T00:32:30.953Z,14.73
2018-05-07T00:35:35.042Z,14.73
2018-05-07T00:38:38.430Z,13.27
2018-05-07T00:41:41.750Z,14.23
2018-05-07T00:44:46.659Z,14.60
2018-05-07T00:47:50.053Z,14.17
2018-05-07T00:50:53.471Z,14.00
2018-05-07T00:53:56.858Z,12.53
2018-05-07T00:57:00.257Z,13.47
2018-05-07T01:00:03.585Z,14.80
2018-05-07T01:03:06.970Z,15.63
2018-05-07T01:06:10.272Z,14.40
2018-05-07T01:09:13.643Z,14.57
2018-05-07T01:12:16.958Z,15.67
2018-05-07T01:15:20.354Z,17.20
2018-05-07T01:18:23.672Z,12.70
2018-05-07T01:21:26.979Z,13.17
2018-05-07T01:24:30.340Z,13.83
2018-05-07T01:27:33.654Z,12.93
2018-05-07T01:30:37.237Z,10.93
2018-05-07T01:33:40.566Z,11.80
2018-05-07T01:36:43.868Z,14.13
2018-05-07T01:39:47.198Z,10.00
2018-05-07T01:42:50.524Z,11.93
2018-05-07T01:45:53.902Z,12.97
2018-05-07T01:48:57.228Z,12.50
2018-05-07T01:52:00.545Z,12.73
2018-05-07T01:55:03.860Z,11.23
2018-05-07T01:58:07.255Z,13.90
2018-05-07T02:01:10.556Z,13.47
2018-05-07T02:04:13.939Z,15.17
2018-05-07T02:07:17.324Z,17.00
2018-05-07T02:10:20.649Z,12.77
2018-05-07T02:13:24.017Z,11.13
2018-05-07T02:16:27.329Z,16.67
2018-05-07T02:19:30.718Z,13.70
2018-05-07T02:22:34.045Z,14.93
2018-05-07T02:25:37.359Z,12.57
2018-05-07T02:28:41.533Z,15.73
2018-05-07T02:31:44.839Z,16.03
2018-05-07T02:34:48.155Z,16.73
2018-05-07T02:37:51.544Z,14.13
2018-05-07T02:40:54.846Z,13.23
2018-05-07T02:43:59.682Z,15.93
2018-05-07T02:47:03.072Z,12.97
2018-05-07T02:50:06.394Z,13.70
2018-05-07T02:53:09.759Z,18.57
2018-05-07T02:56:13.157Z,19.70
2018-05-07T02:59:16.569Z,16.17
2018-05-07T03:02:19.961Z,13.87
2018-05-07T03:05:23.356Z,19.33
2018-05-07T03:08:26.665Z,14.43
2018-05-07T03:11:29.974Z,17.67
2018-05-07T03:14:33.366Z,21.70
2018-05-07T03:17:36.759Z,14.13
2018-05-07T03:20:40.776Z,15.40
2018-05-07T03:23:44.134Z,17.53
2018-05-07T03:26:47.450Z,19.63
2018-05-07T03:29:50.766Z,21.50
2018-05-07T03:32:54.781Z,21.87
2018-05-07T03:35:58.189Z,18.63
2018-05-07T03:39:01.509Z,19.60
2018-05-07T03:42:04.826Z,17.40
2018-05-07T03:45:08.913Z,14.60
2018-05-07T03:48:12.231Z,13.50
2018-05-07T03:51:16.417Z,13.77
2018-05-07T03:54:19.810Z,15.93
2018-05-07T03:57:23.209Z,13.93
2018-05-07T04:00:27.533Z,20.30
2018-05-07T04:03:30.930Z,18.20
2018-05-07T04:06:34.334Z,18.97
2018-05-07T04:09:37.734Z,17.30
2018-05-07T04:12:41.050Z,18.80
2018-05-07T04:15:44.424Z,18.23
2018-05-07T04:19:05.753Z,28.03
2018-05-07T04:22:26.809Z,16.37
2018-05-07T04:25:30.892Z,20.07
2018-05-07T04:28:34.277Z,17.07
2018-05-07T04:31:37.581Z,20.17
2018-05-07T04:34:40.913Z,13.93
2018-05-07T04:37:45.107Z,16.07
2018-05-07T04:40:48.423Z,13.30
2018-05-07T04:43:52.626Z,19.33
2018-05-07T04:46:56.023Z,16.27
2018-05-07T04:49:59.358Z,17.93
2018-05-07T04:53:03.529Z,16.27
2018-05-07T04:56:06.880Z,15.33
2018-05-07T04:59:13.342Z,18.87
2018-05-07T05:02:17.412Z,19.37
2018-05-07T05:05:20.727Z,15.27
2018-05-07T05:08:24.123Z,20.27
2018-05-07T05:11:27.448Z,15.87
2018-05-07T05:14:31.565Z,19.03
2018-05-07T05:17:36.465Z,14.13
2018-05-07T05:20:39.864Z,14.60
2018-05-07T05:23:43.190Z,14.43
2018-05-07T05:26:46.569Z,12.10
2018-05-07T05:29:49.912Z,14.27
2018-05-07T05:32:54.002Z,13.93
2018-05-07T05:35:57.337Z,15.47
2018-05-07T05:39:00.673Z,14.50
2018-05-07T05:42:03.991Z,29.30
2018-05-07T05:45:07.413Z,31.83
2018-05-07T05:48:10.674Z,17.50
2018-05-07T05:51:13.994Z,15.10
2018-05-07T05:54:18.191Z,14.87
2018-05-07T05:57:21.510Z,13.83
2018-05-07T06:00:24.900Z,12.80
2018-05-07T06:03:28.290Z,9.67
2018-05-07T06:06:31.609Z,8.57
2018-05-07T06:09:34.938Z,10.50
2018-05-07T06:12:38.327Z,7.77
2018-05-07T06:15:42.431Z,10.03
2018-05-07T06:18:46.675Z,7.80
2018-05-07T06:21:50.019Z,9.63
2018-05-07T06:24:53.358Z,9.83
2018-05-07T06:27:57.453Z,11.27
2018-05-07T06:31:00.815Z,6.70
2018-05-07T06:34:04.143Z,7.97
2018-05-07T06:37:07.462Z,8.63
2018-05-07T06:40:11.646Z,9.47
2018-05-07T06:43:15.050Z,7.40
2018-05-07T06:46:18.385Z,8.83
2018-05-07T06:49:22.578Z,5.80
2018-05-07T06:52:25.899Z,8.30
2018-05-07T06:55:29.998Z,10.27
2018-05-07T06:58:33.329Z,8.10
2018-05-07T07:01:36.671Z,8.40
2018-05-07T07:04:40.086Z,6.67
2018-05-07T07:07:43.405Z,7.43
2018-05-07T07:10:46.774Z,8.13
2018-05-07T07:13:50.190Z,6.00
2018-05-07T07:16:53.587Z,7.80
2018-05-07T07:19:57.792Z,5.40
2018-05-07T07:23:01.141Z,7.00
2018-05-07T07:26:05.273Z,7.57
2018-05-07T07:29:08.615Z,9.50
2018-05-07T07:32:11.929Z,9.20
2018-05-07T07:35:15.259Z,8.10
2018-05-07T07:38:18.577Z,8.57
2018-05-07T07:41:21.913Z,17.77
2018-05-07T07:44:25.297Z,9.20
2018-05-07T07:47:28.699Z,8.27
2018-05-07T07:50:32.020Z,5.43
2018-05-07T07:53:35.490Z,5.87
2018-05-07T07:56:38.863Z,5.00
2018-05-07T07:59:42.337Z,7.33
2018-05-07T08:02:46.421Z,9.50
2018-05-07T08:05:49.744Z,9.67
2018-05-07T08:08:53.145Z,8.33
2018-05-07T08:11:56.512Z,11.93
2018-05-07T08:14:59.869Z,7.87
2018-05-07T08:18:03.201Z,6.37
2018-05-07T08:21:06.578Z,6.33
2018-05-07T08:24:09.915Z,9.43
2018-05-07T08:27:13.274Z,4.63
2018-05-07T08:30:16.620Z,5.67
2018-05-07T08:33:19.942Z,7.37
2018-05-07T08:36:24.041Z,7.07
2018-05-07T08:39:27.369Z,6.23
2018-05-07T08:42:30.721Z,6.37
2018-05-07T08:45:34.050Z,5.13
2018-05-07T08:48:38.155Z,6.00
2018-05-07T08:51:41.494Z,5.40
2018-05-07T08:54:44.949Z,8.27
2018-05-07T08:57:48.261Z,6.33
2018-05-07T09:00:51.705Z,4.93
2018-05-07T09:03:55.033Z,3.90
2018-05-07T09:06:58.368Z,4.90
2018-05-07T09:10:02.452Z,5.70
2018-05-07T09:13:06.558Z,4.60
2018-05-07T09:16:09.980Z,6.67
2018-05-07T09:19:13.362Z,5.27
2018-05-07T09:22:16.751Z,5.00
2018-05-07T09:25:20.116Z,4.37
2018-05-07T09:28:23.438Z,12.07
2018-05-07T09:31:26.956Z,8.53
2018-05-07T09:34:30.979Z,11.30
2018-05-07T09:37:34.362Z,8.57
2018-05-07T09:40:37.765Z,13.37
2018-05-07T09:43:41.072Z,8.70
2018-05-07T09:46:44.464Z,13.03
2018-05-07T09:49:47.804Z,9.17
2018-05-07T09:52:51.893Z,10.03
2018-05-07T09:55:55.281Z,9.37
2018-05-07T09:58:59.591Z,11.00
2018-05-07T10:02:02.944Z,9.77
2018-05-07T10:05:07.052Z,12.20
2018-05-07T10:08:10.416Z,8.93
2018-05-07T10:11:13.828Z,11.47
2018-05-07T10:14:17.142Z,10.53
2018-05-07T10:17:20.482Z,8.07
2018-05-07T10:20:23.818Z,10.43
2018-05-07T10:23:27.122Z,10.13
2018-05-07T10:26:30.486Z,12.33
2018-05-07T10:29:33.881Z,10.90
2018-05-07T10:32:38.024Z,12.87
2018-05-07T10:35:41.438Z,10.13
2018-05-07T10:38:44.791Z,11.43
2018-05-07T10:41:48.121Z,12.43
2018-05-07T10:44:51.462Z,11.27
2018-05-07T10:47:55.653Z,10.20
2018-05-07T10:50:59.053Z,11.07
2018-05-07T10:54:02.469Z,12.93
2018-05-07T10:57:05.847Z,11.07
2018-05-07T11:00:09.203Z,15.17
2018-05-07T11:03:12.534Z,14.30
2018-05-07T11:06:15.938Z,14.77
2018-05-07T11:09:19.248Z,12.60
2018-05-07T11:12:22.589Z,17.23
2018-05-07T11:15:26.687Z,12.77
2018-05-07T11:18:30.053Z,16.20
2018-05-07T11:21:33.470Z,13.60
2018-05-07T11:24:36.871Z,13.27
2018-05-07T11:27:41.797Z,13.87
2018-05-07T11:30:45.148Z,16.47
2018-05-07T11:33:48.465Z,13.53
2018-05-07T11:36:52.552Z,12.00
2018-05-07T11:39:56.658Z,12.47
2018-05-07T11:43:00.740Z,15.07
2018-05-07T11:46:04.200Z,15.07
2018-05-07T11:49:07.522Z,11.60
2018-05-07T11:52:10.873Z,16.07
2018-05-07T11:55:14.970Z,15.30
2018-05-07T11:58:18.308Z,13.17
2018-05-07T12:01:21.657Z,11.87
2018-05-07T12:04:24.997Z,10.60
2018-05-07T12:07:29.157Z,10.77
2018-05-07T12:10:33.230Z,12.47
2018-05-07T12:13:37.309Z,10.77
2018-05-07T12:16:40.706Z,12.20
2018-05-07T12:19:44.025Z,11.20
2018-05-07T12:22:48.116Z,12.73
2018-05-07T12:25:51.518Z,9.97
2018-05-07T12:28:54.838Z,10.97
2018-05-07T12:31:58.266Z,11.40
2018-05-07T12:35:01.625Z,12.00
2018-05-07T12:38:05.039Z,11.33
2018-05-07T12:41:08.400Z,12.43
2018-05-07T12:44:11.818Z,12.87
2018-05-07T12:47:15.204Z,14.00
2018-05-07T12:50:18.561Z,12.03
2018-05-07T12:53:21.911Z,12.03
2018-05-07T12:56:25.245Z,14.77
2018-05-07T12:59:29.328Z,15.87
2018-05-07T13:02:32.650Z,13.50
2018-05-07T13:05:35.993Z,12.97
2018-05-07T13:08:39.408Z,13.07
2018-05-07T13:11:42.751Z,12.93
2018-05-07T13:14:46.828Z,12.63
2018-05-07T13:17:50.153Z,12.27
2018-05-07T13:20:53.489Z,15.27
2018-05-07T13:23:56.831Z,10.17
2018-05-07T13:27:00.224Z,11.00
2018-05-07T13:30:03.630Z,11.97
2018-05-07T13:33:06.952Z,12.73
2018-05-07T13:36:11.092Z,10.47
2018-05-07T13:39:15.265Z,12.87
2018-05-07T13:42:18.596Z,9.20
2018-05-07T13:45:22.782Z,10.33
2018-05-07T13:48:26.190Z,10.33
2018-05-07T13:51:29.579Z,9.70
2018-05-07T13:54:32.909Z,12.40
2018-05-07T13:57:36.994Z,8.20
2018-05-07T14:00:40.330Z,12.63
2018-05-07T14:03:44.409Z,8.50
2018-05-07T14:06:47.805Z,10.23
2018-05-07T14:09:51.211Z,11.37
2018-05-07T14:12:54.606Z,9.80
2018-05-07T14:15:58.006Z,7.93
2018-05-07T14:19:01.401Z,11.10
2018-05-07T14:22:04.819Z,8.13
2018-05-07T14:25:08.199Z,7.93
2018-05-07T14:28:11.661Z,16.77
2018-05-07T14:31:15.008Z,7.10
2018-05-07T14:34:18.331Z,8.60
2018-05-07T14:37:21.708Z,5.77
2018-05-07T14:40:25.112Z,7.77
2018-05-07T14:43:28.513Z,9.57
2018-05-07T14:46:31.856Z,6.73
2018-05-07T14:49:35.190Z,6.70
2018-05-07T14:52:38.522Z,6.67
2018-05-07T14:55:41.859Z,7.90
2018-05-07T14:58:45.261Z,6.83
2018-05-07T15:01:48.593Z,6.37
2018-05-07T15:04:51.995Z,6.00
2018-05-07T15:07:55.324Z,7.67
2018-05-07T15:10:59.407Z,6.80
2018-05-07T15:14:20.412Z,8.57
2018-05-07T15:17:23.768Z,8.53
2018-05-07T15:20:27.948Z,8.33
2018-05-07T15:23:31.288Z,7.80
2018-05-07T15:26:34.626Z,11.73
2018-05-07T15:29:37.942Z,9.20
2018-05-07T15:32:41.336Z,11.43
2018-05-07T15:35:44.749Z,11.43
2018-05-07T15:38:48.060Z,13.73
2018-05-07T15:41:51.443Z,9.40
2018-05-07T15:44:54.781Z,9.77
2018-05-07T15:47:58.874Z,9.37
2018-05-07T15:51:03.068Z,9.57
2018-05-07T15:54:06.394Z,11.27
2018-05-07T15:57:10.497Z,10.03
2018-05-07T16:00:13.889Z,7.27
2018-05-07T16:03:17.305Z,8.50
2018-05-07T16:06:20.704Z,7.83
2018-05-07T16:09:23.976Z,9.50
2018-05-07T16:12:27.314Z,6.43
2018-05-07T16:15:31.598Z,7.03
2018-05-07T16:18:35.664Z,6.27
2018-05-07T16:21:39.865Z,5.43
2018-05-07T16:24:43.174Z,6.43
2018-05-07T16:27:46.502Z,6.67
2018-05-07T16:30:49.927Z,6.97
2018-05-07T16:33:53.317Z,8.27
2018-05-07T16:36:56.718Z,5.27
2018-05-07T16:40:00.061Z,7.23
2018-05-07T16:43:04.155Z,6.73
2018-05-07T16:46:07.538Z,5.97
2018-05-07T16:49:10.931Z,7.00
2018-05-07T16:52:14.276Z,8.40
2018-05-07T16:55:17.639Z,7.63
2018-05-07T16:58:20.982Z,4.30
2018-05-07T17:01:24.310Z,6.13
2018-05-07T17:04:27.720Z,6.83
2018-05-07T17:07:31.122Z,6.50
2018-05-07T17:10:34.443Z,7.47
2018-05-07T17:13:37.787Z,8.40
2018-05-07T17:16:41.226Z,8.67
2018-05-07T17:19:44.549Z,5.00
2018-05-07T17:22:48.771Z,6.00
2018-05-07T17:25:52.948Z,8.27
2018-05-07T17:28:56.283Z,6.87
2018-05-07T17:32:00.422Z,5.67
2018-05-07T17:35:03.735Z,7.33
2018-05-07T17:38:07.066Z,6.17
2018-05-07T17:41:10.476Z,7.17
2018-05-07T17:44:31.741Z,6.17
2018-05-07T17:47:52.904Z,6.93
2018-05-07T17:50:56.212Z,9.63
2018-05-07T17:53:59.603Z,8.93
2018-05-07T17:57:02.990Z,11.10
2018-05-07T18:00:06.322Z,10.60
2018-05-07T18:03:10.432Z,8.20
2018-05-07T18:06:13.807Z,4.63
2018-05-07T18:09:17.152Z,5.70
2018-05-07T18:12:20.490Z,5.73
2018-05-07T18:15:23.955Z,5.93
2018-05-07T18:18:27.313Z,6.50
2018-05-07T18:21:30.704Z,6.00
2018-05-07T18:24:34.095Z,6.60
2018-05-07T18:27:37.497Z,5.63
2018-05-07T18:30:40.824Z,5.63
2018-05-07T18:33:45.034Z,5.50
2018-05-07T18:36:49.153Z,7.97
2018-05-07T18:39:52.535Z,8.93
2018-05-07T18:42:55.864Z,7.50
2018-05-07T18:45:59.959Z,6.83
2018-05-07T18:49:03.349Z,7.53
2018-05-07T18:52:06.766Z,7.30
2018-05-07T18:55:10.078Z,9.80
2018-05-07T18:58:14.268Z,8.10
2018-05-07T19:01:17.600Z,6.50
2018-05-07T19:04:21.785Z,11.70
2018-05-07T19:07:25.183Z,6.43
2018-05-07T19:10:30.519Z,9.17
2018-05-07T19:13:33.951Z,9.97
2018-05-07T19:16:37.274Z,9.43
2018-05-07T19:19:40.618Z,10.77
2018-05-07T19:22:43.965Z,8.13
2018-05-07T19:25:48.155Z,8.27
2018-05-07T19:28:51.487Z,11.20
2018-05-07T19:31:54.822Z,8.33
2018-05-07T19:34:58.273Z,10.73
2018-05-07T19:38:01.728Z,8.03
2018-05-07T19:41:05.958Z,9.37
2018-05-07T19:44:09.346Z,9.20
2018-05-07T19:47:12.753Z,11.30
2018-05-07T19:50:16.062Z,8.43
2018-05-07T19:53:19.416Z,11.20
2018-05-07T19:56:22.885Z,10.73
2018-05-07T19:59:26.219Z,10.57
2018-05-07T20:02:29.637Z,8.67
2018-05-07T20:05:32.959Z,7.70
2018-05-07T20:08:36.288Z,7.57
2018-05-07T20:11:39.848Z,7.87
2018-05-07T20:14:43.233Z,7.17
2018-05-07T20:17:46.640Z,10.10
2018-05-07T20:20:50.043Z,11.67
2018-05-07T20:23:53.442Z,9.87
2018-05-07T20:26:56.804Z,8.93
2018-05-07T20:30:00.113Z,8.57
2018-05-07T20:33:03.538Z,7.33
2018-05-07T20:36:06.953Z,7.53
2018-05-07T20:39:10.286Z,8.70
2018-05-07T20:42:13.621Z,6.63
2018-05-07T20:45:17.050Z,6.80
2018-05-07T20:48:20.402Z,9.03
2018-05-07T20:51:23.717Z,6.57
2018-05-07T20:54:27.054Z,7.43
2018-05-07T20:57:30.376Z,7.67
2018-05-07T21:00:33.715Z,8.17
2018-05-07T21:03:37.024Z,5.47
2018-05-07T21:06:40.421Z,3.77
2018-05-07T21:09:43.822Z,6.33
2018-05-07T21:12:47.239Z,5.37
2018-05-07T21:15:50.612Z,5.77
2018-05-07T21:18:53.958Z,7.27
2018-05-07T21:21:58.037Z,4.93
2018-05-07T21:25:01.386Z,5.07
2018-05-07T21:28:04.697Z,6.40
2018-05-07T21:31:08.123Z,4.40
2018-05-07T21:34:11.531Z,5.67
2018-05-07T21:37:14.882Z,4.80
2018-05-07T21:40:18.357Z,6.03
2018-05-07T21:43:21.693Z,4.73
2018-05-07T21:46:25.010Z,5.20
2018-05-07T21:49:28.341Z,3.90
2018-05-07T21:52:31.825Z,4.27
2018-05-07T21:55:35.186Z,8.80
2018-05-07T21:58:38.492Z,5.43
2018-05-07T22:01:41.845Z,3.93
2018-05-07T22:04:46.670Z,5.60
2018-05-07T22:07:50.015Z,5.67
2018-05-07T22:10:53.330Z,5.10
2018-05-07T22:13:56.665Z,4.53
2018-05-07T22:17:00.046Z,5.80
2018-05-07T22:20:03.385Z,7.10
2018-05-07T22:23:07.457Z,4.73
2018-05-07T22:26:10.794Z,6.00
2018-05-07T22:29:15.645Z,5.17
2018-05-07T22:32:19.076Z,4.63
2018-05-07T22:35:22.481Z,6.47
2018-05-07T22:38:25.855Z,7.60
2018-05-07T22:41:29.156Z,7.87
2018-05-07T22:44:32.580Z,8.03
2018-05-07T22:47:35.992Z,7.37
2018-05-07T22:50:39.377Z,8.33
2018-05-07T22:53:42.693Z,8.30
2018-05-07T22:56:46.039Z,7.73
2018-05-07T22:59:49.384Z,9.47
2018-05-07T23:02:52.784Z,8.87
2018-05-07T23:05:56.188Z,8.67
2018-05-07T23:08:59.582Z,8.30
2018-05-07T23:12:04.317Z,7.50
2018-05-07T23:15:07.643Z,9.07
2018-05-07T23:18:11.010Z,8.70
2018-05-07T23:21:14.409Z,10.80
2018-05-07T23:24:17.721Z,11.97
2018-05-07T23:27:21.100Z,8.57
2018-05-07T23:30:24.410Z,5.63
2018-05-07T23:33:27.752Z,12.13
2018-05-07T23:36:31.930Z,9.03
2018-05-07T23:39:35.312Z,7.43
2018-05-07T23:42:38.650Z,8.27
2018-05-07T23:45:42.762Z,8.23
2018-05-07T23:48:46.090Z,8.83
2018-05-07T23:51:49.538Z,8.23
2018-05-07T23:54:52.930Z,9.53
2018-05-07T23:57:56.330Z,6.90
